Time;durP1;ratioP1;P1;durP2;ratioP2;P2;SDS_P1;SDS_P2;PMS_P1;PMS_P2;Temp;Humidity;BMP_temperature;BMP_pressure;BME280_temperature;BME280_humidity;BME280_pressure;Samples;Min_cycle;Max_cycle;Signal;HPM_P1;HPM_P2
2022/10/09 00:01:34;;;;;;;29.42;5.90;;;6.60;99.90;;;;;;5076180;28;20128;-24
2022/10/09 00:04:00;;;;;;;16.33;5.83;;;6.50;99.90;;;;;;5064879;28;20087;-24
2022/10/09 00:06:29;;;;;;;22.48;6.53;;;6.50;99.90;;;;;;5076266;28;20087;-24
2022/10/09 00:08:55;;;;;;;13.13;5.72;;;6.40;99.90;;;;;;5076119;28;20482;-25
2022/10/09 00:11:24;;;;;;;17.10;6.43;;;6.40;99.90;;;;;;5076715;28;20098;-25
2022/10/09 00:13:52;;;;;;;23.83;6.85;;;6.40;99.90;;;;;;5076166;28;20080;-24
2022/10/09 00:16:19;;;;;;;17.85;6.70;;;6.50;99.90;;;;;;5074104;28;20481;-24
2022/10/09 00:18:45;;;;;;;16.23;6.60;;;6.60;99.90;;;;;;5076889;28;20455;-24
2022/10/09 00:21:24;;;;;;;22.58;7.05;;;6.60;99.90;;;;;;5075683;28;20399;-24
2022/10/09 00:23:52;;;;;;;20.00;6.05;;;6.70;99.90;;;;;;5076237;28;20044;-24
2022/10/09 00:26:18;;;;;;;14.48;6.45;;;6.70;99.90;;;;;;5076732;28;20051;-24
2022/10/09 00:28:44;;;;;;;22.58;6.60;;;6.60;99.90;;;;;;5075793;28;20040;-24
2022/10/09 00:31:11;;;;;;;22.33;6.72;;;6.70;99.90;;;;;;5075818;28;20076;-24
2022/10/09 00:33:37;;;;;;;12.25;5.85;;;6.70;99.90;;;;;;5076601;28;20048;-25
2022/10/09 00:36:12;;;;;;;25.75;6.97;;;6.70;99.90;;;;;;5075697;28;20091;-25
2022/10/09 00:38:37;;;;;;;17.73;6.30;;;6.60;99.90;;;;;;5076547;28;20124;-25
2022/10/09 00:41:04;;;;;;;26.67;6.38;;;6.70;99.90;;;;;;5074416;28;20080;-24
2022/10/09 00:44:00;;;;;;;17.10;5.68;;;6.70;99.90;;;;;;5074578;28;20109;-24
2022/10/09 00:46:47;;;;;;;12.70;5.32;;;6.60;99.90;;;;;;5073417;28;20089;-24
2022/10/09 00:49:16;;;;;;;16.52;5.53;;;6.60;99.90;;;;;;5075435;28;20047;-25
2022/10/09 00:51:44;;;;;;;18.55;6.25;;;6.60;99.90;;;;;;5075687;28;20044;-25
2022/10/09 00:54:14;;;;;;;15.60;6.07;;;6.60;99.90;;;;;;5075326;28;20129;-24
2022/10/09 00:56:40;;;;;;;20.60;6.30;;;6.60;99.90;;;;;;5076028;28;20041;-24
2022/10/09 00:59:06;;;;;;;19.30;6.45;;;6.60;99.90;;;;;;5074353;28;20506;-24
2022/10/09 01:01:32;;;;;;;32.25;7.40;;;6.70;99.90;;;;;;5075242;28;20044;-24
2022/10/09 01:03:58;;;;;;;17.25;6.38;;;6.60;99.90;;;;;;5075153;28;20051;-24
2022/10/09 01:07:08;;;;;;;27.40;6.75;;;6.70;99.90;;;;;;5075072;28;20131;-25
2022/10/09 01:10:09;;;;;;;24.80;7.50;;;6.70;99.90;;;;;;5075869;28;20044;-25
2022/10/09 01:13:00;;;;;;;20.65;7.45;;;6.60;99.90;;;;;;5075488;28;20063;-25
2022/10/09 01:15:32;;;;;;;20.65;8.05;;;6.60;99.90;;;;;;5074586;28;20546;-25
2022/10/09 01:18:07;;;;;;;20.55;7.00;;;6.60;99.90;;;;;;5074916;28;20131;-25
2022/10/09 01:20:53;;;;;;;24.17;7.88;;;6.50;99.90;;;;;;5057592;28;20110;-25
2022/10/09 01:23:24;;;;;;;18.95;7.05;;;6.60;99.90;;;;;;5075114;28;20049;-25
2022/10/09 01:26:28;;;;;;;18.05;7.28;;;6.40;99.90;;;;;;5075265;28;20122;-25
2022/10/09 01:28:59;;;;;;;22.52;7.80;;;6.30;99.90;;;;;;5074056;28;20577;-25
2022/10/09 01:31:29;;;;;;;17.20;6.75;;;6.20;99.90;;;;;;5075483;28;20041;-25
2022/10/09 01:33:56;;;;;;;20.85;7.30;;;6.20;99.90;;;;;;5056991;28;20059;-24
2022/10/09 01:36:23;;;;;;;24.90;7.90;;;6.10;99.90;;;;;;5073596;28;20048;-24
2022/10/09 01:38:50;;;;;;;17.50;7.60;;;6.00;99.90;;;;;;5074490;28;20102;-24
2022/10/09 01:41:17;;;;;;;19.92;7.78;;;6.00;99.90;;;;;;5074977;28;20059;-24
2022/10/09 01:43:42;;;;;;;21.08;7.57;;;6.00;99.90;;;;;;5074772;28;20135;-24
2022/10/09 01:46:32;;;;;;;18.45;6.90;;;5.90;99.90;;;;;;5074330;28;20088;-25
2022/10/09 01:49:21;;;;;;;18.10;7.45;;;5.90;99.90;;;;;;5074517;28;20045;-25
2022/10/09 01:51:59;;;;;;;23.05;8.52;;;5.80;99.90;;;;;;5073605;28;20048;-25
2022/10/09 01:54:38;;;;;;;19.85;7.85;;;5.80;99.90;;;;;;5075096;28;20052;-25
2022/10/09 01:57:07;;;;;;;17.73;7.97;;;5.80;99.90;;;;;;5074121;28;20139;-24
2022/10/09 01:59:37;;;;;;;16.83;7.72;;;5.70;99.90;;;;;;5074631;28;20529;-24
2022/10/09 02:02:05;;;;;;;22.92;8.13;;;5.80;99.90;;;;;;5074072;28;20045;-24
2022/10/09 02:04:31;;;;;;;22.88;8.38;;;5.70;99.90;;;;;;5073986;28;20047;-24
2022/10/09 02:06:57;;;;;;;27.63;8.00;;;5.80;99.90;;;;;;5074352;28;20048;-24
2022/10/09 02:09:24;;;;;;;24.92;8.73;;;5.80;99.90;;;;;;5073919;28;20048;-24
2022/10/09 02:11:54;;;;;;;23.48;8.65;;;5.70;99.90;;;;;;5074226;28;20044;-24
2022/10/09 02:14:20;;;;;;;30.02;8.75;;;5.70;99.90;;;;;;5074493;28;20106;-24
2022/10/09 02:16:50;;;;;;;27.98;9.50;;;5.70;99.90;;;;;;5073886;28;20434;-25
2022/10/09 02:19:21;;;;;;;22.30;8.90;;;5.70;99.90;;;;;;5073833;28;20049;-24
2022/10/09 02:22:24;;;;;;;24.83;8.85;;;5.70;99.90;;;;;;5072882;28;20475;-24
2022/10/09 02:24:51;;;;;;;23.70;8.48;;;5.70;99.90;;;;;;5073325;28;20057;-24
2022/10/09 02:27:19;;;;;;;26.67;8.75;;;5.70;99.90;;;;;;5074283;28;20048;-24
2022/10/09 02:29:46;;;;;;;21.67;8.52;;;5.60;99.90;;;;;;5074218;28;20041;-24
2022/10/09 02:32:12;;;;;;;22.48;9.20;;;5.60;99.90;;;;;;5073708;28;20122;-25
2022/10/09 02:34:38;;;;;;;20.08;8.73;;;5.70;99.90;;;;;;5073686;28;20483;-25
2022/10/09 02:37:04;;;;;;;21.52;8.70;;;5.70;99.90;;;;;;5072702;28;20037;-24
2022/10/09 02:39:29;;;;;;;27.75;10.18;;;5.70;99.90;;;;;;5073007;28;20398;-24
2022/10/09 02:41:55;;;;;;;26.83;9.35;;;5.60;99.90;;;;;;5074415;28;20121;-24
2022/10/09 02:44:21;;;;;;;28.48;8.88;;;5.70;99.90;;;;;;5073707;28;20481;-24
2022/10/09 02:46:47;;;;;;;23.60;8.82;;;5.80;99.90;;;;;;5073533;28;20375;-24
2022/10/09 02:49:12;;;;;;;24.60;8.73;;;5.70;99.90;;;;;;5073467;28;20045;-24
2022/10/09 02:51:38;;;;;;;21.20;10.18;;;5.70;99.90;;;;;;5073502;28;20046;-24
2022/10/09 02:54:04;;;;;;;26.27;10.10;;;5.70;99.90;;;;;;5073157;28;20052;-24
2022/10/09 02:56:30;;;;;;;24.48;9.88;;;5.70;99.90;;;;;;5073538;28;20052;-24
2022/10/09 02:58:55;;;;;;;27.88;10.48;;;5.60;99.90;;;;;;5072292;28;20495;-24
2022/10/09 03:01:22;;;;;;;30.52;10.40;;;5.60;99.90;;;;;;5074236;28;20102;-24
2022/10/09 03:03:48;;;;;;;30.50;11.13;;;5.60;99.90;;;;;;5073394;28;20522;-24
2022/10/09 03:06:19;;;;;;;19.92;9.25;;;5.50;99.90;;;;;;5073421;28;20136;-24
2022/10/09 03:08:46;;;;;;;24.42;11.73;;;5.50;99.90;;;;;;5073357;28;20084;-24
2022/10/09 03:11:13;;;;;;;29.08;12.50;;;5.60;99.90;;;;;;5073390;28;20119;-24
2022/10/09 03:13:39;;;;;;;28.90;11.85;;;5.60;99.90;;;;;;5073744;28;20093;-24
2022/10/09 03:16:16;;;;;;;23.10;11.55;;;5.70;99.90;;;;;;5073303;28;20084;-24
2022/10/09 03:18:42;;;;;;;31.65;11.68;;;5.70;99.90;;;;;;5073637;28;20044;-24
2022/10/09 03:21:11;;;;;;;33.53;11.48;;;5.60;99.90;;;;;;5073833;28;20098;-24
2022/10/09 03:23:37;;;;;;;26.52;11.82;;;5.60;99.90;;;;;;5073177;28;20052;-24
2022/10/09 03:26:06;;;;;;;33.97;12.27;;;5.60;99.90;;;;;;5055572;28;20096;-24
2022/10/09 03:28:41;;;;;;;26.70;12.65;;;5.60;99.90;;;;;;5072923;28;20049;-24
2022/10/09 03:31:07;;;;;;;31.70;12.68;;;5.50;99.90;;;;;;5073045;28;20074;-24
2022/10/09 03:33:34;;;;;;;32.00;13.00;;;5.60;99.90;;;;;;5073099;28;20476;-24
2022/10/09 03:36:00;;;;;;;29.52;11.90;;;5.50;99.90;;;;;;5072125;28;20174;-24
2022/10/09 03:38:26;;;;;;;35.17;12.70;;;5.40;99.90;;;;;;5072732;28;20131;-25
2022/10/09 03:40:52;;;;;;;31.27;12.07;;;5.40;99.90;;;;;;5073031;28;20044;-24
2022/10/09 03:43:18;;;;;;;29.35;11.98;;;5.40;99.90;;;;;;5071810;28;20048;-24
2022/10/09 03:45:44;;;;;;;31.30;12.38;;;5.30;99.90;;;;;;5071816;28;20135;-24
2022/10/09 03:48:11;;;;;;;47.60;14.45;;;5.30;99.90;;;;;;5071733;28;20131;-24
2022/10/09 03:50:38;;;;;;;29.88;12.02;;;5.30;99.90;;;;;;5073834;28;20052;-24
2022/10/09 03:53:05;;;;;;;35.42;13.65;;;5.30;99.90;;;;;;5077089;28;20048;-25
2022/10/09 03:55:31;;;;;;;41.05;13.70;;;5.30;99.90;;;;;;5076461;28;20055;-24
2022/10/09 03:57:57;;;;;;;40.42;16.13;;;5.30;99.90;;;;;;5076961;28;20135;-24
2022/10/09 04:00:23;;;;;;;37.78;15.65;;;5.30;99.90;;;;;;5077204;28;20041;-24
2022/10/09 04:02:49;;;;;;;37.83;15.43;;;5.40;99.90;;;;;;5076562;28;20406;-25
2022/10/09 04:05:14;;;;;;;71.60;18.25;;;5.40;99.90;;;;;;5076381;28;20048;-24
2022/10/09 04:07:40;;;;;;;60.20;18.60;;;5.30;99.90;;;;;;5076249;28;20127;-24
2022/10/09 04:10:06;;;;;;;60.78;16.88;;;5.30;99.90;;;;;;5074862;28;20052;-25
2022/10/09 04:12:32;;;;;;;204.10;23.02;;;5.30;99.90;;;;;;5076203;28;20044;-24
2022/10/09 04:14:58;;;;;;;166.05;21.50;;;5.20;99.90;;;;;;5076124;28;20108;-24
2022/10/09 04:17:24;;;;;;;63.28;17.25;;;5.20;99.90;;;;;;5058511;28;20078;-24
2022/10/09 04:19:49;;;;;;;115.82;21.80;;;5.20;99.90;;;;;;5076093;28;20123;-25
2022/10/09 04:22:15;;;;;;;77.22;19.23;;;5.20;99.90;;;;;;5075653;28;20053;-24
2022/10/09 04:24:41;;;;;;;54.17;16.23;;;5.10;99.90;;;;;;5059143;28;20045;-24
2022/10/09 04:27:06;;;;;;;44.97;17.00;;;5.10;99.90;;;;;;5075912;28;20045;-24
2022/10/09 04:29:32;;;;;;;54.40;18.13;;;5.20;99.90;;;;;;5075789;28;20083;-24
2022/10/09 04:31:58;;;;;;;62.08;20.38;;;5.10;99.90;;;;;;5075875;28;20127;-24
2022/10/09 04:34:23;;;;;;;55.70;19.92;;;5.10;99.90;;;;;;5074586;28;20053;-24
2022/10/09 04:36:49;;;;;;;69.50;21.10;;;5.20;99.90;;;;;;5074535;28;20052;-24
2022/10/09 04:39:15;;;;;;;59.03;19.85;;;5.20;99.90;;;;;;5075673;28;20048;-24
2022/10/09 04:41:40;;;;;;;58.83;21.58;;;5.20;99.90;;;;;;5074683;28;20226;-24
2022/10/09 04:44:06;;;;;;;63.03;20.58;;;5.10;99.90;;;;;;5075442;28;20433;-24
2022/10/09 04:46:32;;;;;;;62.45;22.55;;;5.10;99.90;;;;;;5075585;28;20058;-24
2022/10/09 04:48:58;;;;;;;64.32;21.50;;;5.30;99.90;;;;;;5074240;28;20492;-24
2022/10/09 04:51:23;;;;;;;55.42;20.40;;;5.20;99.90;;;;;;5075310;28;20053;-24
2022/10/09 04:53:49;;;;;;;54.15;20.75;;;5.20;99.90;;;;;;5075084;28;20049;-24
2022/10/09 04:56:17;;;;;;;66.25;21.75;;;5.20;99.90;;;;;;5075327;28;20052;-24
2022/10/09 04:58:44;;;;;;;51.20;19.90;;;5.20;99.90;;;;;;5075256;28;20032;-24
2022/10/09 05:01:17;;;;;;;56.63;21.33;;;5.20;99.90;;;;;;5075022;28;20045;-24
2022/10/09 05:03:43;;;;;;;;;;;5.20;99.90;;;;;;5075753;28;20074;-24
2022/10/09 05:06:11;;;;;;;84.38;20.08;;;5.20;99.90;;;;;;5076304;28;19920;-25
2022/10/09 05:08:37;;;;;;;58.47;19.50;;;5.10;99.90;;;;;;5073863;28;20040;-24
2022/10/09 05:11:07;;;;;;;74.95;20.33;;;5.10;99.90;;;;;;5074369;28;20048;-24
2022/10/09 05:13:35;;;;;;;112.68;21.65;;;5.20;99.90;;;;;;5074996;28;20127;-24
2022/10/09 05:16:03;;;;;;;131.63;22.58;;;5.10;99.90;;;;;;5074970;28;20048;-24
2022/10/09 05:18:29;;;;;;;223.10;29.08;;;5.10;99.90;;;;;;5074901;28;20409;-24
2022/10/09 05:20:55;;;;;;;110.18;22.05;;;5.10;99.90;;;;;;5075695;28;20116;-24
2022/10/09 05:23:21;;;;;;;73.15;22.23;;;5.00;99.90;;;;;;5074794;28;20540;-24
2022/10/09 05:25:54;;;;;;;48.75;19.30;;;5.00;99.90;;;;;;5073502;28;20127;-24
2022/10/09 05:28:20;;;;;;;97.95;23.90;;;4.90;99.90;;;;;;5074891;28;20049;-24
2022/10/09 05:30:45;;;;;;;69.30;18.85;;;4.90;99.90;;;;;;5073963;28;20135;-24
2022/10/09 05:33:11;;;;;;;64.55;20.73;;;4.80;99.90;;;;;;5074607;28;20045;-24
2022/10/09 05:35:37;;;;;;;64.45;20.70;;;4.80;99.90;;;;;;5074605;28;20094;-24
2022/10/09 05:38:02;;;;;;;58.45;20.15;;;4.80;99.90;;;;;;5075059;28;20394;-24
2022/10/09 05:40:28;;;;;;;57.25;21.10;;;4.80;99.90;;;;;;5074131;28;20044;-24
2022/10/09 05:42:54;;;;;;;56.95;21.48;;;4.80;99.90;;;;;;5074134;28;20056;-24
2022/10/09 05:45:19;;;;;;;47.90;20.58;;;4.70;99.90;;;;;;5073207;28;20510;-24
2022/10/09 05:47:45;;;;;;;62.42;23.48;;;4.80;99.90;;;;;;5073400;28;20045;-24
2022/10/09 05:50:11;;;;;;;61.17;21.77;;;4.80;99.90;;;;;;5074200;28;20044;-24
2022/10/09 05:52:38;;;;;;;63.58;22.70;;;4.80;99.90;;;;;;5073142;28;20090;-24
2022/10/09 05:55:05;;;;;;;55.90;21.73;;;4.80;99.90;;;;;;5073874;28;20559;-23
2022/10/09 05:57:31;;;;;;;53.42;23.13;;;4.80;99.90;;;;;;5074043;28;20442;-23
2022/10/09 05:59:57;;;;;;;54.67;20.92;;;4.80;99.90;;;;;;5074205;28;20041;-23
2022/10/09 06:02:23;;;;;;;47.15;21.35;;;4.80;99.90;;;;;;5056299;28;20052;-23
2022/10/09 06:04:48;;;;;;;47.88;21.88;;;4.80;99.90;;;;;;5074605;28;20044;-23
2022/10/09 06:07:14;;;;;;;48.58;20.40;;;4.80;99.90;;;;;;5074832;28;20040;-23
2022/10/09 06:09:40;;;;;;;52.30;22.90;;;4.80;99.90;;;;;;5072801;28;20043;-23
2022/10/09 06:12:06;;;;;;;47.05;20.38;;;4.80;99.90;;;;;;5073952;28;20046;-24
2022/10/09 06:14:32;;;;;;;53.92;22.20;;;4.90;99.90;;;;;;5073315;28;20116;-24
2022/10/09 06:16:58;;;;;;;52.65;21.55;;;4.90;99.90;;;;;;5073923;28;20084;-24
2022/10/09 06:19:24;;;;;;;56.17;22.52;;;5.00;99.90;;;;;;5073941;28;20089;-24
2022/10/09 06:21:50;;;;;;;53.90;23.33;;;5.00;99.90;;;;;;5074380;28;20082;-24
2022/10/09 06:24:21;;;;;;;43.80;22.55;;;5.00;99.90;;;;;;5073822;28;20418;-24
2022/10/09 06:26:47;;;;;;;44.03;20.15;;;5.10;99.90;;;;;;5074396;28;20083;-24
2022/10/09 06:29:13;;;;;;;47.58;22.52;;;5.10;99.90;;;;;;5072530;28;20095;-23
2022/10/09 06:31:39;;;;;;;40.28;20.92;;;5.10;99.90;;;;;;5073748;28;20052;-23
2022/10/09 06:34:04;;;;;;;42.40;21.63;;;5.20;99.90;;;;;;5073739;28;20044;-24
2022/10/09 06:36:33;;;;;;;42.20;20.88;;;5.30;99.90;;;;;;5073677;28;20076;-24
2022/10/09 06:39:01;;;;;;;49.38;20.75;;;5.40;99.90;;;;;;5073636;28;20044;-23
2022/10/09 06:41:28;;;;;;;48.08;22.02;;;5.40;99.90;;;;;;5073567;28;20059;-23
2022/10/09 06:43:59;;;;;;;42.95;19.92;;;5.50;99.90;;;;;;5073570;28;20407;-23
2022/10/09 06:46:27;;;;;;;42.67;19.35;;;5.50;99.90;;;;;;5073692;28;20060;-23
2022/10/09 06:48:53;;;;;;;39.67;18.83;;;5.60;99.90;;;;;;5073287;28;20055;-23
2022/10/09 06:51:21;;;;;;;37.15;20.00;;;5.70;99.90;;;;;;5072225;28;20044;-23
2022/10/09 06:53:49;;;;;;;35.25;18.95;;;5.70;99.90;;;;;;5073538;28;20105;-24
2022/10/09 06:56:17;;;;;;;40.55;20.60;;;5.80;99.90;;;;;;5072481;28;20149;-23
2022/10/09 06:58:43;;;;;;;44.53;21.42;;;5.80;99.90;;;;;;5073398;28;20084;-23
2022/10/09 07:01:10;;;;;;;37.72;18.27;;;5.90;99.90;;;;;;5072205;28;20041;-24
2022/10/09 07:03:38;;;;;;;38.85;19.13;;;6.00;99.90;;;;;;5072233;28;20049;-23
2022/10/09 07:06:12;;;;;;;32.88;17.67;;;6.00;99.90;;;;;;5073384;28;20479;-23
2022/10/09 07:08:40;;;;;;;33.38;17.63;;;6.20;99.90;;;;;;5072964;28;20554;-23
2022/10/09 07:11:20;;;;;;;35.55;18.75;;;6.20;99.90;;;;;;5072384;28;20048;-23
2022/10/09 07:13:51;;;;;;;38.25;18.65;;;6.20;99.90;;;;;;5073958;28;20049;-23
2022/10/09 07:16:20;;;;;;;31.83;18.67;;;6.30;99.90;;;;;;5055950;28;20048;-23
2022/10/09 07:18:45;;;;;;;38.80;19.55;;;6.30;99.90;;;;;;5073278;28;20047;-24
2022/10/09 07:21:11;;;;;;;36.63;17.63;;;6.30;99.90;;;;;;5073818;28;20386;-23
2022/10/09 07:23:37;;;;;;;32.28;19.48;;;6.40;99.90;;;;;;5074024;28;20462;-23
2022/10/09 07:26:16;;;;;;;38.00;17.95;;;6.40;99.90;;;;;;5076689;28;20048;-24
2022/10/09 07:28:42;;;;;;;32.80;17.10;;;6.60;99.90;;;;;;5077826;28;20098;-24
2022/10/09 07:31:09;;;;;;;42.78;19.63;;;6.60;99.90;;;;;;5076892;28;20474;-24
2022/10/09 07:33:34;;;;;;;40.55;19.23;;;6.80;99.90;;;;;;5076906;28;20044;-24
2022/10/09 07:36:01;;;;;;;28.73;17.52;;;6.90;99.90;;;;;;5076174;28;20057;-24
2022/10/09 07:38:27;;;;;;;33.08;18.35;;;7.00;99.90;;;;;;5077623;28;20040;-24
2022/10/09 07:40:54;;;;;;;33.28;17.35;;;7.10;99.90;;;;;;5077019;28;20047;-24
2022/10/09 07:43:20;;;;;;;25.05;16.33;;;7.20;99.90;;;;;;5076784;28;20055;-23
2022/10/09 07:45:46;;;;;;;35.72;17.73;;;7.30;99.90;;;;;;5076681;28;20482;-24
2022/10/09 07:48:12;;;;;;;27.17;15.68;;;7.60;99.90;;;;;;5075708;28;20371;-24
2022/10/09 07:50:38;;;;;;;25.95;15.02;;;7.70;99.90;;;;;;5077403;28;20098;-24
2022/10/09 07:53:04;;;;;;;24.38;14.77;;;7.80;99.90;;;;;;5077144;28;20185;-24
2022/10/09 07:55:30;;;;;;;26.17;15.35;;;7.90;99.90;;;;;;5076506;28;20059;-24
2022/10/09 07:57:56;;;;;;;25.15;15.27;;;8.00;99.90;;;;;;5076465;28;20041;-24
2022/10/09 08:00:21;;;;;;;24.02;12.13;;;8.10;99.90;;;;;;5076438;28;20044;-24
2022/10/09 08:02:47;;;;;;;25.42;13.20;;;8.30;99.90;;;;;;5076422;28;20040;-24
2022/10/09 08:05:13;;;;;;;27.80;15.68;;;8.40;99.90;;;;;;5076608;28;20131;-24
2022/10/09 08:07:39;;;;;;;25.85;13.50;;;8.50;99.90;;;;;;5076325;28;20045;-24
2022/10/09 08:10:04;;;;;;;23.67;11.45;;;8.60;99.90;;;;;;5074745;28;20406;-24
2022/10/09 08:12:30;;;;;;;21.38;11.40;;;8.70;99.90;;;;;;5077031;28;20044;-24
2022/10/09 08:14:56;;;;;;;19.00;10.15;;;8.90;99.90;;;;;;5074909;28;20482;-25
2022/10/09 08:17:22;;;;;;;18.15;9.63;;;8.90;99.90;;;;;;5076664;28;20041;-24
2022/10/09 08:19:47;;;;;;;18.33;8.52;;;9.10;99.90;;;;;;5058801;28;20481;-24
2022/10/09 08:22:13;;;;;;;15.90;7.93;;;9.10;99.90;;;;;;5076616;28;20463;-24
2022/10/09 08:24:39;;;;;;;15.80;9.32;;;9.30;99.90;;;;;;5058185;28;20105;-24
2022/10/09 08:27:05;;;;;;;12.80;7.10;;;9.40;99.90;;;;;;5057957;28;20562;-24
2022/10/09 08:29:31;;;;;;;16.77;6.88;;;9.50;99.90;;;;;;5076670;28;20371;-24
2022/10/09 08:31:57;;;;;;;15.90;7.55;;;9.60;99.90;;;;;;5075852;28;20044;-24
2022/10/09 08:34:22;;;;;;;11.00;6.35;;;9.80;99.90;;;;;;5075848;28;20406;-24
2022/10/09 08:36:48;;;;;;;13.70;6.53;;;9.80;99.90;;;;;;5073995;28;20546;-24
2022/10/09 08:39:14;;;;;;;14.00;5.95;;;9.90;99.90;;;;;;5075408;28;20044;-24
2022/10/09 08:41:48;;;;;;;16.77;7.78;;;10.10;99.90;;;;;;5058086;28;20048;-24
2022/10/09 08:44:24;;;;;;;14.98;5.95;;;10.20;99.90;;;;;;5075902;28;20056;-24
2022/10/09 08:46:52;;;;;;;13.10;4.88;;;10.40;99.90;;;;;;5075556;28;20048;-24
2022/10/09 08:49:43;;;;;;;12.75;5.45;;;10.40;99.90;;;;;;5075749;28;20390;-24
2022/10/09 08:52:24;;;;;;;10.98;5.00;;;10.70;99.90;;;;;;5076066;28;20097;-24
2022/10/09 08:54:52;;;;;;;13.15;5.07;;;10.90;99.90;;;;;;5075432;28;20040;-24
2022/10/09 08:57:21;;;;;;;12.05;4.88;;;11.00;99.90;;;;;;5074323;28;20044;-24
2022/10/09 08:59:47;;;;;;;8.50;4.38;;;11.00;99.90;;;;;;5075269;28;20048;-24
2022/10/09 09:02:42;;;;;;;11.18;4.45;;;11.10;99.90;;;;;;5074311;28;20041;-24
2022/10/09 09:05:27;;;;;;;12.23;4.00;;;11.20;99.90;;;;;;5074291;28;20433;-25
2022/10/09 09:08:10;;;;;;;13.25;3.15;;;11.70;99.90;;;;;;5075513;28;20041;-24
2022/10/09 09:10:45;;;;;;;7.90;2.70;;;12.50;99.90;;;;;;5073929;28;20048;-24
2022/10/09 09:13:25;;;;;;;9.02;2.97;;;13.50;99.90;;;;;;5075111;28;20040;-24
2022/10/09 09:16:27;;;;;;;9.27;2.92;;;14.00;99.90;;;;;;5074084;28;20505;-24
2022/10/09 09:19:32;;;;;;;5.90;2.22;;;14.50;99.90;;;;;;5056478;28;20139;-24
2022/10/09 09:21:58;;;;;;;6.15;2.40;;;14.80;99.90;;;;;;5075663;28;20399;-24
2022/10/09 09:24:37;;;;;;;6.00;1.90;;;15.00;99.90;;;;;;5073592;28;20055;-24
2022/10/09 09:27:10;;;;;;;4.50;1.88;;;14.70;99.90;;;;;;5074118;28;20048;-24
2022/10/09 09:30:07;;;;;;;8.48;2.85;;;14.70;99.90;;;;;;5073608;28;20063;-24
2022/10/09 09:32:32;;;;;;;12.63;3.15;;;14.80;99.90;;;;;;5064652;28;20048;-25
2022/10/09 09:35:32;;;;;;;8.95;2.03;;;14.90;99.90;;;;;;5057132;28;20049;-25
2022/10/09 09:37:57;;;;;;;7.32;1.73;;;15.10;99.90;;;;;;5074898;28;20044;-25
2022/10/09 09:40:29;;;;;;;4.82;1.92;;;15.20;99.90;;;;;;5070939;28;20368;-25
2022/10/09 09:42:55;;;;;;;8.98;2.03;;;15.10;99.90;;;;;;5066638;28;20057;-25
2022/10/09 09:45:25;;;;;;;5.90;2.03;;;15.10;99.90;;;;;;5073868;28;20071;-25
2022/10/09 09:47:58;;;;;;;6.63;1.80;;;15.30;99.90;;;;;;5072366;28;20117;-26
2022/10/09 09:50:39;;;;;;;3.85;1.33;;;15.30;99.90;;;;;;5073691;28;20059;-25
2022/10/09 09:53:36;;;;;;;8.63;2.22;;;15.30;1.00;;;;;;5057034;28;20517;-25
2022/10/09 09:56:03;;;;;;;8.00;1.95;;;15.50;1.00;;;;;;5069925;28;20064;-25
2022/10/09 09:58:35;;;;;;;8.10;2.08;;;15.70;1.00;;;;;;5074212;28;20086;-25
2022/10/09 10:01:03;;;;;;;7.63;2.43;;;16.00;99.90;;;;;;5074754;28;20047;-25
2022/10/09 10:03:29;;;;;;;8.45;1.75;;;16.00;99.90;;;;;;5074149;28;20048;-26
2022/10/09 10:05:56;;;;;;;8.35;2.00;;;15.80;99.90;;;;;;5073907;28;20433;-25
2022/10/09 10:08:24;;;;;;;10.10;2.03;;;15.60;99.90;;;;;;5074013;28;20068;-25
2022/10/09 10:10:57;;;;;;;5.90;1.55;;;15.80;99.90;;;;;;5073031;28;20131;-25
2022/10/09 10:13:31;;;;;;;8.50;1.70;;;15.80;1.00;;;;;;5072822;28;20060;-26
2022/10/09 10:15:57;;;;;;;7.03;1.65;;;15.50;1.00;;;;;;5072478;28;20502;-26
2022/10/09 10:18:28;;;;;;;5.72;1.70;;;15.60;1.00;;;;;;5074082;28;20071;-25
2022/10/09 10:21:12;;;;;;;7.75;1.52;;;15.70;99.90;;;;;;5073278;28;20052;-26
2022/10/09 10:24:01;;;;;;;5.82;1.17;;;15.90;99.90;;;;;;5074437;28;20044;-26
2022/10/09 10:26:38;;;;;;;5.65;1.45;;;16.00;99.90;;;;;;5074072;28;20410;-26
2022/10/09 10:29:32;;;;;;;8.77;1.75;;;16.10;30.90;;;;;;5074526;28;20044;-26
2022/10/09 10:32:24;;;;;;;6.82;1.27;;;16.30;99.90;;;;;;5073151;28;20084;-25
2022/10/09 10:35:04;;;;;;;6.68;1.75;;;16.60;99.90;;;;;;5056171;28;20044;-26
2022/10/09 10:37:39;;;;;;;5.78;1.50;;;16.60;1.00;;;;;;5073700;28;20044;-25
2022/10/09 10:40:29;;;;;;;9.20;1.52;;;16.90;99.90;;;;;;5074293;28;20050;-26
2022/10/09 10:43:20;;;;;;;6.30;0.93;;;17.30;99.90;;;;;;5074418;28;20059;-26
2022/10/09 10:46:01;;;;;;;5.70;1.05;;;17.20;99.90;;;;;;5072634;28;20482;-26
2022/10/09 10:48:30;;;;;;;10.98;1.55;;;16.90;1.00;;;;;;5074064;28;20049;-26
2022/10/09 10:50:58;;;;;;;5.93;1.40;;;16.90;1.00;;;;;;5072279;28;20055;-27
2022/10/09 10:53:39;;;;;;;5.50;1.02;;;17.00;90.10;;;;;;5073484;28;20055;-26
2022/10/09 10:56:34;;;;;;;3.92;1.05;;;17.00;99.90;;;;;;5074108;28;20048;-27
2022/10/09 10:59:26;;;;;;;5.70;0.98;;;16.90;1.00;;;;;;5072825;28;20048;-26
2022/10/09 11:01:59;;;;;;;6.97;1.30;;;17.10;99.90;;;;;;5076884;28;20048;-26
2022/10/09 11:05:01;;;;;;;8.95;1.20;;;17.20;99.90;;;;;;5076897;28;20056;-26
2022/10/09 11:07:40;;;;;;;3.50;0.90;;;16.80;99.90;;;;;;5077472;28;20056;-26
2022/10/09 11:10:18;;;;;;;7.07;1.27;;;17.30;1.00;;;;;;5077725;28;20131;-26
2022/10/09 11:13:19;;;;;;;6.70;1.30;;;18.00;1.00;;;;;;5077881;28;20052;-26
2022/10/09 11:16:08;;;;;;;5.45;1.70;;;17.90;99.90;;;;;;5042508;28;20444;-26
2022/10/09 11:19:00;;;;;;;4.40;1.17;;;17.50;21.40;;;;;;5077287;28;20185;-26
2022/10/09 11:21:46;;;;;;;4.50;1.30;;;16.90;99.90;;;;;;5073775;28;20067;-26
2022/10/09 11:24:20;;;;;;;4.72;1.10;;;17.00;26.50;;;;;;5077734;28;20049;-26
2022/10/09 11:27:12;;;;;;;6.75;1.40;;;17.10;1.00;;;;;;5077082;28;20080;-26
2022/10/09 11:29:54;;;;;;;9.23;1.17;;;17.10;1.00;;;;;;5077763;28;20417;-26
2022/10/09 11:32:28;;;;;;;5.60;0.93;;;16.90;1.00;;;;;;5077647;28;20063;-26
2022/10/09 11:35:00;;;;;;;5.22;0.90;;;16.50;33.60;;;;;;5076955;28;20049;-25
2022/10/09 11:37:33;;;;;;;6.63;1.37;;;16.40;99.90;;;;;;5077028;28;20090;-25
2022/10/09 11:40:04;;;;;;;4.22;1.00;;;16.60;40.70;;;;;;5076857;28;20091;-26
2022/10/09 11:42:30;;;;;;;6.50;1.38;;;16.30;99.90;;;;;;5076549;28;20040;-26
2022/10/09 11:45:13;;;;;;;8.32;1.20;;;16.50;99.90;;;;;;5076792;28;20102;-26
2022/10/09 11:47:57;;;;;;;5.78;1.13;;;17.10;99.90;;;;;;5077259;28;20047;-26
2022/10/09 11:50:46;;;;;;;7.32;1.17;;;17.90;99.90;;;;;;5077180;28;20040;-26
2022/10/09 11:53:15;;;;;;;5.63;0.75;;;18.20;1.00;;;;;;5076520;28;20105;-26
2022/10/09 11:55:42;;;;;;;8.98;1.55;;;18.30;99.90;;;;;;5076427;28;20045;-26
2022/10/09 11:58:22;;;;;;;3.70;0.70;;;18.60;1.00;;;;;;5077315;28;20049;-26
2022/10/09 12:00:53;;;;;;;3.75;1.08;;;18.70;81.10;;;;;;5076415;28;20044;-27
2022/10/09 12:03:33;;;;;;;6.85;1.02;;;18.50;99.90;;;;;;5075771;28;20139;-26
2022/10/09 12:06:07;;;;;;;5.90;1.02;;;18.20;1.00;;;;;;5076715;28;20052;-26
2022/10/09 12:08:33;;;;;;;5.90;1.08;;;17.70;1.00;;;;;;5076868;28;20045;-26
2022/10/09 12:11:17;;;;;;;5.38;0.82;;;17.70;83.20;;;;;;5075369;28;20071;-26
2022/10/09 12:13:50;;;;;;;5.65;1.30;;;17.90;99.90;;;;;;5076271;28;20047;-26
2022/10/09 12:16:33;;;;;;;8.05;1.00;;;18.30;35.50;;;;;;5077073;28;20044;-27
2022/10/09 12:19:10;;;;;;;4.03;0.73;;;18.40;1.00;;;;;;5076251;28;20060;-26
2022/10/09 12:21:44;;;;;;;5.90;1.10;;;18.70;1.00;;;;;;5076000;28;20110;-26
2022/10/09 12:24:18;;;;;;;8.73;1.38;;;18.30;21.40;;;;;;5058145;28;20052;-28
2022/10/09 12:26:45;;;;;;;5.03;1.00;;;18.30;99.90;;;;;;5076364;28;20048;-28
2022/10/09 12:29:28;;;;;;;4.18;1.13;;;18.20;99.90;;;;;;5076700;28;20071;-27
2022/10/09 12:31:58;;;;;;;8.30;1.30;;;18.50;99.90;;;;;;5075376;28;20063;-28
2022/10/09 12:34:29;;;;;;;6.72;1.15;;;18.70;1.00;;;;;;5075962;28;20052;-27
2022/10/09 12:37:10;;;;;;;7.78;1.20;;;18.90;99.90;;;;;;5074974;28;20044;-27
2022/10/09 12:39:36;;;;;;;7.63;1.35;;;19.10;99.90;;;;;;5075701;28;20087;-27
2022/10/09 12:42:03;;;;;;;6.80;1.42;;;19.00;12.40;;;;;;5074590;28;20048;-27
2022/10/09 12:44:34;;;;;;;6.13;1.15;;;19.10;99.90;;;;;;5075412;28;20410;-27
2022/10/09 12:47:14;;;;;;;11.57;2.05;;;19.00;1.00;;;;;;5075613;28;20051;-27
2022/10/09 12:49:40;;;;;;;4.95;0.98;;;19.30;99.90;;;;;;5074503;28;20487;-27
2022/10/09 12:52:14;;;;;;;5.30;1.08;;;19.20;99.90;;;;;;5075685;28;20126;-27
2022/10/09 12:54:43;;;;;;;5.00;1.20;;;19.30;99.90;;;;;;5075296;28;20055;-28
2022/10/09 12:57:14;;;;;;;3.80;1.33;;;19.40;1.00;;;;;;5075283;28;20193;-28
2022/10/09 12:59:41;;;;;;;7.28;1.30;;;19.40;99.90;;;;;;5075365;28;20124;-27
2022/10/09 13:02:10;;;;;;;5.00;1.10;;;19.40;93.90;;;;;;5074054;28;20053;-27
2022/10/09 13:04:37;;;;;;;7.90;2.03;;;19.40;1.00;;;;;;5074023;28;20044;-27